Time;durP1;ratioP1;P1;durP2;ratioP2;P2;SDS_P1;SDS_P2;PMS_P1;PMS_P2;Temp;Humidity;BMP_temperature;BMP_pressure;BME280_temperature;BME280_humidity;BME280_pressure;Samples;Min_cycle;Max_cycle;Signal;HPM_P1;HPM_P2
2023/06/25 00:01:55;;;;;;;35.17;17.08;;;;;;;;;;6139738;28;20117;-55
2023/06/25 00:04:56;;;;;;;35.53;17.75;;;;;;;;;;6137406;28;20415;-56
2023/06/25 00:07:57;;;;;;;32.00;17.60;;;;;;;;;;6136681;28;20050;-53
2023/06/25 00:10:57;;;;;;;29.05;17.27;;;;;;;;;;6137070;28;20043;-52
2023/06/25 00:13:58;;;;;;;33.05;17.95;;;;;;;;;;6137095;28;20043;-56
2023/06/25 00:16:59;;;;;;;32.67;17.98;;;;;;;;;;6138902;28;20043;-54
2023/06/25 00:19:59;;;;;;;35.05;17.63;;;;;;;;;;6141013;28;20051;-54
2023/06/25 00:26:05;;;;;;;32.80;17.88;;;;;;;;;;6180218;28;20042;-55
2023/06/25 00:29:05;;;;;;;34.67;18.98;;;;;;;;;;6191124;28;20092;-52
2023/06/25 00:32:06;;;;;;;36.03;19.15;;;;;;;;;;6191982;28;20047;-54
2023/06/25 00:35:12;;;;;;;35.60;18.70;;;;;;;;;;6191979;28;20159;-52
2023/06/25 00:38:13;;;;;;;33.70;17.55;;;;;;;;;;6196814;28;20046;-55
2023/06/25 00:41:13;;;;;;;32.00;17.48;;;;;;;;;;6200826;28;20409;-52
2023/06/25 00:44:14;;;;;;;35.40;18.70;;;;;;;;;;6199149;28;20046;-53
2023/06/25 00:47:16;;;;;;;39.13;18.10;;;;;;;;;;6200641;28;20485;-55
2023/06/25 00:50:21;;;;;;;30.40;17.08;;;;;;;;;;6200696;28;20034;-54
2023/06/25 00:53:22;;;;;;;31.05;17.50;;;;;;;;;;6198942;28;20455;-54
2023/06/25 00:56:29;;;;;;;30.55;16.95;;;;;;;;;;6200475;28;20042;-55
2023/06/25 00:59:30;;;;;;;30.40;16.25;;;;;;;;;;6200600;28;20172;-56
2023/06/25 01:02:36;;;;;;;31.53;17.30;;;;;;;;;;6199841;28;20042;-53
2023/06/25 01:05:58;;;;;;;29.60;16.83;;;;;;;;;;6196913;28;20046;-55
2023/06/25 01:08:59;;;;;;;28.27;15.93;;;;;;;;;;6200732;28;20054;-56
2023/06/25 01:12:01;;;;;;;;;;;;;;;;;;6201193;28;20070;-57
2023/06/25 01:15:01;;;;;;;31.63;16.10;;;;;;;;;;6198940;28;19972;-58
2023/06/25 01:18:04;;;;;;;31.77;17.30;;;;;;;;;;6200298;28;20499;-57
2023/06/25 01:21:09;;;;;;;28.17;15.75;;;;;;;;;;6200845;28;20065;-55
2023/06/25 01:24:10;;;;;;;29.70;15.55;;;;;;;;;;6199618;28;20054;-57
2023/06/25 01:27:11;;;;;;;29.60;15.73;;;;;;;;;;6199562;28;20486;-56
2023/06/25 01:30:13;;;;;;;29.63;15.43;;;;;;;;;;6200058;28;20046;-55
2023/06/25 01:33:16;;;;;;;30.23;15.90;;;;;;;;;;6200046;28;20140;-53
2023/06/25 01:36:16;;;;;;;25.88;14.95;;;;;;;;;;6198352;28;20042;-57
2023/06/25 01:39:18;;;;;;;29.35;15.45;;;;;;;;;;6199730;28;20051;-54
2023/06/25 01:42:19;;;;;;;30.13;15.70;;;;;;;;;;6200265;28;20050;-56
2023/06/25 01:45:20;;;;;;;30.98;16.42;;;;;;;;;;6199046;28;20116;-57
2023/06/25 01:48:21;;;;;;;31.90;15.68;;;;;;;;;;6193180;28;20054;-56
2023/06/25 01:51:22;;;;;;;28.33;14.80;;;;;;;;;;6193175;28;20513;-54
2023/06/25 01:54:23;;;;;;;26.13;14.73;;;;;;;;;;6196091;28;20038;-53
2023/06/25 01:57:24;;;;;;;25.52;13.88;;;;;;;;;;6194883;28;20050;-55
2023/06/25 02:00:25;;;;;;;24.42;14.13;;;;;;;;;;6196144;28;20496;-55
2023/06/25 02:03:25;;;;;;;23.73;14.48;;;;;;;;;;6195968;28;20512;-58
2023/06/25 02:06:26;;;;;;;24.98;14.27;;;;;;;;;;6194320;28;20429;-55
2023/06/25 02:09:27;;;;;;;26.58;13.95;;;;;;;;;;6195971;28;20642;-56
2023/06/25 02:12:27;;;;;;;25.30;14.18;;;;;;;;;;6196397;28;20046;-55
2023/06/25 02:15:28;;;;;;;25.50;14.38;;;;;;;;;;6194550;28;20838;-55
2023/06/25 02:18:31;;;;;;;27.10;14.85;;;;;;;;;;6195205;28;20133;-57
2023/06/25 02:21:31;;;;;;;;;;;;;;;;;;6196432;28;20058;-54
2023/06/25 02:24:32;;;;;;;27.00;13.52;;;;;;;;;;6194574;28;20008;-57
2023/06/25 02:27:32;;;;;;;27.65;15.40;;;;;;;;;;6194506;28;20516;-55
2023/06/25 02:30:33;;;;;;;24.75;13.88;;;;;;;;;;6195314;28;20138;-55
2023/06/25 02:33:33;;;;;;;32.55;16.63;;;;;;;;;;6195394;28;20503;-54
2023/06/25 02:36:34;;;;;;;32.60;15.18;;;;;;;;;;6194112;28;20477;-54
2023/06/25 02:39:35;;;;;;;39.33;17.33;;;;;;;;;;6195658;28;20045;-54
2023/06/25 02:42:35;;;;;;;41.45;18.10;;;;;;;;;;6195461;28;20054;-52
2023/06/25 02:45:36;;;;;;;38.15;16.33;;;;;;;;;;6193471;28;20046;-55
2023/06/25 02:48:38;;;;;;;45.10;16.70;;;;;;;;;;6194722;28;20534;-54
2023/06/25 02:51:38;;;;;;;36.53;16.20;;;;;;;;;;6194882;28;20056;-51
2023/06/25 02:54:39;;;;;;;39.08;17.38;;;;;;;;;;6194237;28;20046;-56
2023/06/25 02:57:39;;;;;;;38.60;17.70;;;;;;;;;;6193770;28;20051;-55
2023/06/25 03:00:40;;;;;;;40.38;17.35;;;;;;;;;;6194310;28;20125;-52
2023/06/25 03:03:41;;;;;;;36.75;17.83;;;;;;;;;;6194391;28;20104;-54
2023/06/25 03:06:42;;;;;;;43.15;18.08;;;;;;;;;;6192825;28;20046;-56
2023/06/25 03:09:43;;;;;;;37.42;17.80;;;;;;;;;;6194315;28;20526;-52
2023/06/25 03:12:43;;;;;;;38.80;17.43;;;;;;;;;;6194571;28;20053;-55
2023/06/25 03:15:44;;;;;;;38.38;17.52;;;;;;;;;;6192639;28;20042;-53
2023/06/25 03:18:45;;;;;;;35.25;17.70;;;;;;;;;;6194009;28;20077;-56
2023/06/25 03:21:45;;;;;;;37.72;18.48;;;;;;;;;;6194146;28;20057;-55
2023/06/25 03:24:46;;;;;;;35.38;18.63;;;;;;;;;;6193044;28;20077;-57
2023/06/25 03:27:46;;;;;;;36.53;18.63;;;;;;;;;;6193185;28;20485;-53
2023/06/25 03:30:47;;;;;;;39.83;19.65;;;;;;;;;;6193855;28;20052;-56
2023/06/25 03:33:48;;;;;;;39.00;19.47;;;;;;;;;;6193858;28;20085;-56
2023/06/25 03:36:49;;;;;;;37.72;18.75;;;;;;;;;;6192742;28;20133;-56
2023/06/25 03:39:49;;;;;;;40.00;19.45;;;;;;;;;;6193855;28;20481;-55
2023/06/25 03:42:50;;;;;;;41.28;21.85;;;;;;;;;;6194050;28;20145;-54
2023/06/25 03:45:50;;;;;;;40.50;21.20;;;;;;;;;;6191910;28;20421;-56
2023/06/25 03:48:51;;;;;;;48.40;23.38;;;;;;;;;;6193749;28;20046;-56
2023/06/25 03:51:52;;;;;;;50.65;25.30;;;;;;;;;;6193842;28;20474;-54
2023/06/25 03:54:52;;;;;;;54.35;25.98;;;;;;;;;;6192839;28;20394;-57
2023/06/25 03:57:56;;;;;;;55.13;26.40;;;;;;;;;;6192931;28;20437;-57
2023/06/25 04:00:57;;;;;;;49.58;26.75;;;;;;;;;;6193257;28;20048;-58
2023/06/25 04:03:57;;;;;;;50.58;24.50;;;;;;;;;;6192997;28;20042;-56
2023/06/25 04:06:58;;;;;;;45.95;24.77;;;;;;;;;;6191684;28;20074;-52
2023/06/25 04:09:58;;;;;;;51.42;25.48;;;;;;;;;;6193631;28;20046;-55
2023/06/25 04:12:59;;;;;;;51.08;25.88;;;;;;;;;;6192739;28;20070;-56
2023/06/25 04:15:59;;;;;;;49.40;25.73;;;;;;;;;;6191593;28;20043;-54
2023/06/25 04:19:00;;;;;;;51.10;26.20;;;;;;;;;;6193193;28;20090;-55
2023/06/25 04:22:00;;;;;;;49.53;25.33;;;;;;;;;;6192800;28;20038;-52
2023/06/25 04:25:01;;;;;;;54.90;24.95;;;;;;;;;;6191495;28;20062;-57
2023/06/25 04:28:02;;;;;;;50.95;25.75;;;;;;;;;;6192333;28;20447;-56
2023/06/25 04:31:03;;;;;;;52.55;25.73;;;;;;;;;;6193013;28;20401;-56
2023/06/25 04:34:03;;;;;;;49.53;26.02;;;;;;;;;;6192259;28;20099;-55
2023/06/25 04:37:04;;;;;;;49.58;25.65;;;;;;;;;;6191849;28;20034;-55
2023/06/25 04:40:06;;;;;;;51.63;25.73;;;;;;;;;;6187803;28;20054;-56
2023/06/25 04:43:06;;;;;;;53.45;26.27;;;;;;;;;;6192635;28;20138;-57
2023/06/25 04:46:07;;;;;;;56.65;26.35;;;;;;;;;;6189916;28;20494;-56
2023/06/25 04:49:09;;;;;;;50.72;25.95;;;;;;;;;;6192535;28;20535;-61
2023/06/25 04:52:17;;;;;;;48.35;24.65;;;;;;;;;;6192768;28;20150;-60
2023/06/25 04:55:17;;;;;;;54.53;27.25;;;;;;;;;;6190230;28;20121;-61
2023/06/25 04:58:18;;;;;;;50.85;26.00;;;;;;;;;;6192206;28;20056;-62
2023/06/25 05:01:18;;;;;;;53.03;26.77;;;;;;;;;;6192297;28;20081;-60
2023/06/25 05:04:19;;;;;;;57.45;27.05;;;;;;;;;;6192110;28;20038;-61
2023/06/25 05:07:20;;;;;;;57.20;28.50;;;;;;;;;;6191515;28;20132;-60
2023/06/25 05:10:21;;;;;;;52.60;27.10;;;;;;;;;;6191794;28;20453;-61
2023/06/25 05:13:22;;;;;;;54.72;26.73;;;;;;;;;;6192689;28;20096;-61
2023/06/25 05:16:22;;;;;;;46.95;25.55;;;;;;;;;;6190600;28;20057;-62
2023/06/25 05:19:23;;;;;;;50.60;26.63;;;;;;;;;;6192398;28;20537;-59
2023/06/25 05:22:23;;;;;;;49.63;26.67;;;;;;;;;;6191492;28;20113;-61
2023/06/25 05:25:24;;;;;;;56.93;26.37;;;;;;;;;;6187283;28;20054;-62
2023/06/25 05:28:24;;;;;;;46.28;25.67;;;;;;;;;;6195554;28;20385;-60
2023/06/25 05:31:25;;;;;;;50.33;26.00;;;;;;;;;;6194027;28;20093;-62
2023/06/25 05:34:26;;;;;;;51.27;27.13;;;;;;;;;;6196112;28;20061;-62
2023/06/25 05:37:27;;;;;;;52.40;26.87;;;;;;;;;;6194495;28;20047;-59
2023/06/25 05:40:28;;;;;;;50.50;26.70;;;;;;;;;;6195480;28;20050;-62
2023/06/25 05:43:28;;;;;;;46.15;25.40;;;;;;;;;;6193990;28;20074;-62
2023/06/25 05:46:29;;;;;;;49.58;26.70;;;;;;;;;;6192221;28;20580;-61
2023/06/25 05:49:30;;;;;;;49.63;26.10;;;;;;;;;;6193697;28;20039;-59
2023/06/25 05:52:30;;;;;;;51.13;26.85;;;;;;;;;;6190232;28;20050;-57
2023/06/25 05:55:31;;;;;;;49.47;25.93;;;;;;;;;;6191291;28;20585;-62
2023/06/25 05:58:36;;;;;;;49.30;26.47;;;;;;;;;;6190849;28;20054;-60
2023/06/25 06:01:38;;;;;;;51.00;26.98;;;;;;;;;;6194168;28;20184;-61
2023/06/25 06:04:38;;;;;;;53.30;27.10;;;;;;;;;;6195330;28;20047;-62
2023/06/25 06:07:39;;;;;;;47.57;25.27;;;;;;;;;;6193641;28;20050;-60
2023/06/25 06:10:39;;;;;;;49.93;24.93;;;;;;;;;;6195515;28;20096;-56
2023/06/25 06:13:40;;;;;;;51.58;25.75;;;;;;;;;;6190490;28;20073;-56
2023/06/25 06:16:40;;;;;;;49.07;26.07;;;;;;;;;;6193922;28;20046;-59
2023/06/25 06:19:41;;;;;;;48.90;25.33;;;;;;;;;;6195360;28;20077;-61
2023/06/25 06:22:41;;;;;;;46.00;23.83;;;;;;;;;;6195929;28;20046;-61
2023/06/25 06:25:42;;;;;;;43.10;23.67;;;;;;;;;;6191475;28;20415;-64
2023/06/25 06:28:43;;;;;;;43.80;23.80;;;;;;;;;;6193346;28;20422;-60
2023/06/25 06:31:44;;;;;;;43.63;23.63;;;;;;;;;;6195078;28;20417;-63
2023/06/25 06:34:45;;;;;;;42.93;22.20;;;;;;;;;;6193830;28;20101;-64
2023/06/25 06:37:46;;;;;;;39.80;22.17;;;;;;;;;;6194077;28;20048;-62
2023/06/25 06:40:46;;;;;;;40.17;23.20;;;;;;;;;;6195231;28;20044;-62
2023/06/25 06:43:47;;;;;;;36.23;19.80;;;;;;;;;;6195034;28;20038;-63
2023/06/25 06:46:47;;;;;;;32.53;18.73;;;;;;;;;;6192304;28;20397;-63
2023/06/25 06:49:48;;;;;;;39.10;19.37;;;;;;;;;;6194567;28;20043;-62
2023/06/25 06:52:48;;;;;;;34.27;20.10;;;;;;;;;;6194470;28;20474;-60
2023/06/25 06:55:49;;;;;;;35.70;19.33;;;;;;;;;;6192743;28;20585;-61
2023/06/25 06:58:50;;;;;;;41.53;19.70;;;;;;;;;;6194801;28;20054;-62
2023/06/25 07:01:50;;;;;;;33.23;19.47;;;;;;;;;;6194709;28;20148;-62
2023/06/25 07:04:51;;;;;;;35.13;19.13;;;;;;;;;;6193086;28;20069;-61
2023/06/25 07:07:52;;;;;;;34.30;18.63;;;;;;;;;;6193203;28;20104;-59
2023/06/25 07:10:53;;;;;;;39.70;20.17;;;;;;;;;;6194062;28;20050;-57
2023/06/25 07:13:53;;;;;;;33.67;17.63;;;;;;;;;;6191643;28;20120;-63
2023/06/25 07:16:54;;;;;;;32.97;18.20;;;;;;;;;;6192911;28;20394;-63
2023/06/25 07:19:54;;;;;;;31.07;17.60;;;;;;;;;;6193573;28;20611;-60
2023/06/25 07:22:55;;;;;;;31.73;18.27;;;;;;;;;;6193946;28;20050;-68
2023/06/25 07:25:56;;;;;;;34.73;17.47;;;;;;;;;;6191681;28;20050;-67
2023/06/25 07:28:56;;;;;;;34.23;18.00;;;;;;;;;;6193856;28;20046;-58
2023/06/25 07:31:57;;;;;;;35.20;17.97;;;;;;;;;;6193176;28;20053;-65
2023/06/25 07:34:58;;;;;;;35.47;17.37;;;;;;;;;;6192357;28;20399;-66
2023/06/25 07:37:58;;;;;;;32.90;17.90;;;;;;;;;;6192957;28;20513;-60
2023/06/25 07:40:59;;;;;;;33.30;18.37;;;;;;;;;;6193112;28;20117;-64
2023/06/25 07:44:00;;;;;;;33.80;18.47;;;;;;;;;;6193627;28;20072;-65
2023/06/25 07:47:00;;;;;;;31.30;19.30;;;;;;;;;;6191259;28;20061;-61
2023/06/25 07:50:01;;;;;;;33.47;17.90;;;;;;;;;;6193202;28;20913;-65
2023/06/25 07:53:02;;;;;;;32.93;17.57;;;;;;;;;;6193371;28;20053;-62
2023/06/25 07:56:03;;;;;;;30.73;16.17;;;;;;;;;;6191657;28;20193;-56
2023/06/25 07:59:03;;;;;;;31.60;17.45;;;;;;;;;;6194253;28;20100;-57
2023/06/25 08:02:05;;;;;;;33.50;18.03;;;;;;;;;;6193631;28;20138;-55
2023/06/25 08:05:06;;;;;;;34.65;18.25;;;;;;;;;;6191772;28;20057;-58
2023/06/25 08:08:07;;;;;;;38.33;19.05;;;;;;;;;;6192496;28;20188;-59
2023/06/25 08:11:07;;;;;;;31.33;17.27;;;;;;;;;;6184471;28;20050;-64
2023/06/25 08:14:08;;;;;;;29.43;18.10;;;;;;;;;;6192919;28;20077;-64
2023/06/25 08:17:09;;;;;;;34.90;19.20;;;;;;;;;;6191996;28;20046;-57
2023/06/25 08:20:09;;;;;;;32.67;18.50;;;;;;;;;;6192356;28;20195;-57
2023/06/25 08:23:10;;;;;;;35.50;19.03;;;;;;;;;;6192714;28;20042;-65
2023/06/25 08:26:13;;;;;;;41.57;19.53;;;;;;;;;;6190648;28;20046;-58
2023/06/25 08:29:13;;;;;;;40.22;20.80;;;;;;;;;;6192778;28;20081;-55
2023/06/25 08:32:14;;;;;;;34.57;18.23;;;;;;;;;;6190860;28;20514;-57
2023/06/25 08:35:14;;;;;;;31.87;17.40;;;;;;;;;;6186889;28;20045;-56
2023/06/25 08:38:18;;;;;;;31.77;17.97;;;;;;;;;;6189684;28;20038;-57
2023/06/25 08:41:19;;;;;;;37.28;19.90;;;;;;;;;;6191863;28;20958;-56
2023/06/25 08:44:19;;;;;;;38.33;19.63;;;;;;;;;;6192225;28;20038;-56
2023/06/25 08:47:25;;;;;;;36.30;19.40;;;;;;;;;;6191342;28;20052;-56
2023/06/25 08:50:26;;;;;;;36.85;20.33;;;;;;;;;;6192538;28;20042;-61
2023/06/25 08:53:31;;;;;;;38.00;20.20;;;;;;;;;;6192786;28;20045;-56
2023/06/25 08:56:33;;;;;;;40.05;20.48;;;;;;;;;;6190598;28;20042;-54
2023/06/25 08:59:33;;;;;;;37.85;20.27;;;;;;;;;;6196797;28;20052;-56
2023/06/25 09:02:35;;;;;;;31.43;17.77;;;;;;;;;;6197095;28;20125;-56
2023/06/25 09:05:35;;;;;;;33.17;17.70;;;;;;;;;;6196287;28;20105;-58
2023/06/25 09:08:39;;;;;;;30.13;17.13;;;;;;;;;;6196132;28;20456;-60
2023/06/25 09:11:40;;;;;;;33.38;17.75;;;;;;;;;;6192478;28;20547;-63
2023/06/25 09:14:41;;;;;;;31.33;16.80;;;;;;;;;;6193600;28;20462;-58
2023/06/25 09:17:41;;;;;;;30.10;17.17;;;;;;;;;;6195220;28;20048;-55
2023/06/25 09:20:49;;;;;;;30.63;17.97;;;;;;;;;;6196184;28;20555;-60
2023/06/25 09:23:51;;;;;;;31.38;17.50;;;;;;;;;;6195270;28;20142;-56
2023/06/25 09:26:53;;;;;;;28.30;16.83;;;;;;;;;;6189360;28;20197;-55
2023/06/25 09:29:57;;;;;;;31.58;17.15;;;;;;;;;;6195664;28;20053;-57
2023/06/25 09:32:59;;;;;;;30.05;17.00;;;;;;;;;;6195830;28;20054;-54
2023/06/25 09:36:03;;;;;;;31.85;16.83;;;;;;;;;;6195351;28;20042;-55
2023/06/25 09:39:05;;;;;;;23.95;13.90;;;;;;;;;;6195127;28;20049;-63
2023/06/25 09:42:06;;;;;;;22.52;13.30;;;;;;;;;;6194095;28;20134;-62
2023/06/25 09:45:09;;;;;;;23.52;13.98;;;;;;;;;;6189689;28;20215;-67
2023/06/25 09:48:11;;;;;;;23.92;12.57;;;;;;;;;;6191583;28;20046;-66
2023/06/25 09:51:14;;;;;;;20.77;12.68;;;;;;;;;;6209850;28;20046;-63
2023/06/25 09:54:18;;;;;;;24.42;12.75;;;;;;;;;;6182374;28;20481;-61
2023/06/25 09:57:20;;;;;;;22.58;13.40;;;;;;;;;;6175783;28;20445;-59
2023/06/25 10:00:22;;;;;;;24.27;13.88;;;;;;;;;;6174162;28;20050;-62
2023/06/25 10:03:24;;;;;;;24.45;14.23;;;;;;;;;;6174278;28;20495;-64
2023/06/25 10:06:25;;;;;;;;;;;;;;;;;;6172085;28;20035;-63
2023/06/25 10:09:26;;;;;;;22.15;13.13;;;;;;;;;;6167910;28;19937;-61
2023/06/25 10:12:32;;;;;;;24.10;13.43;;;;;;;;;;6175585;28;20051;-64
2023/06/25 10:15:34;;;;;;;24.60;13.52;;;;;;;;;;6168882;28;20353;-62
2023/06/25 10:18:42;;;;;;;22.63;13.27;;;;;;;;;;6170522;28;20054;-62
2023/06/25 10:21:42;;;;;;;21.52;12.20;;;;;;;;;;6175566;28;20058;-61
2023/06/25 10:24:49;;;;;;;20.63;12.20;;;;;;;;;;6168903;28;20516;-62
2023/06/25 10:27:49;;;;;;;24.42;13.13;;;;;;;;;;6169768;28;20115;-61
2023/06/25 10:30:50;;;;;;;22.97;12.53;;;;;;;;;;6168623;28;20043;-60
2023/06/25 10:34:01;;;;;;;23.40;12.93;;;;;;;;;;6173870;28;20463;-61
2023/06/25 10:37:04;;;;;;;23.75;13.68;;;;;;;;;;6169195;28;20050;-61
2023/06/25 10:40:07;;;;;;;25.60;13.23;;;;;;;;;;6168651;28;20055;-60
2023/06/25 10:43:09;;;;;;;23.25;13.35;;;;;;;;;;6169819;28;20051;-61
2023/06/25 10:46:10;;;;;;;23.50;13.07;;;;;;;;;;6173712;28;20117;-60
2023/06/25 10:49:18;;;;;;;24.27;13.87;;;;;;;;;;6170011;28;20050;-59
2023/06/25 10:52:19;;;;;;;22.13;13.57;;;;;;;;;;6172085;28;20547;-58
2023/06/25 10:55:19;;;;;;;24.00;13.73;;;;;;;;;;6168312;28;20054;-60
2023/06/25 10:58:23;;;;;;;27.67;13.73;;;;;;;;;;6168174;28;20054;-56
2023/06/25 11:01:24;;;;;;;22.73;12.43;;;;;;;;;;6166570;28;20645;-58
2023/06/25 11:04:25;;;;;;;21.50;12.32;;;;;;;;;;6166636;28;20105;-58
2023/06/25 11:07:26;;;;;;;20.07;12.20;;;;;;;;;;6172615;28;20452;-60
2023/06/25 11:10:26;;;;;;;21.40;12.77;;;;;;;;;;6168817;28;20043;-60
2023/06/25 11:13:27;;;;;;;25.60;13.27;;;;;;;;;;6175999;28;20093;-59
2023/06/25 11:16:28;;;;;;;23.70;14.37;;;;;;;;;;6170386;28;20153;-59
2023/06/25 11:19:29;;;;;;;26.83;15.10;;;;;;;;;;6169044;28;20050;-62
2023/06/25 11:22:30;;;;;;;23.27;13.15;;;;;;;;;;6169153;28;20543;-61
2023/06/25 11:25:31;;;;;;;21.77;12.80;;;;;;;;;;6173134;28;20047;-61
2023/06/25 11:28:35;;;;;;;23.40;12.00;;;;;;;;;;6172781;28;20051;-59
2023/06/25 11:31:44;;;;;;;23.65;12.02;;;;;;;;;;6167142;28;20057;-60
2023/06/25 11:34:44;;;;;;;22.77;12.40;;;;;;;;;;6167949;28;20398;-59
2023/06/25 11:37:46;;;;;;;25.93;13.27;;;;;;;;;;6169345;28;20074;-61
2023/06/25 11:40:53;;;;;;;24.00;12.68;;;;;;;;;;6174445;28;20121;-60
2023/06/25 11:43:53;;;;;;;21.63;12.23;;;;;;;;;;6167628;28;20058;-63
2023/06/25 11:46:54;;;;;;;22.40;12.43;;;;;;;;;;6173325;28;20086;-62
2023/06/25 11:49:55;;;;;;;21.23;11.50;;;;;;;;;;6172247;28;20058;-62
2023/06/25 11:52:56;;;;;;;23.20;11.55;;;;;;;;;;6172366;28;20054;-61
2023/06/25 11:55:56;;;;;;;23.40;11.83;;;;;;;;;;6169035;28;20077;-61
2023/06/25 11:58:57;;;;;;;21.80;11.80;;;;;;;;;;6180009;28;20046;-62
2023/06/25 12:01:58;;;;;;;22.20;11.80;;;;;;;;;;6185342;28;20043;-60
2023/06/25 12:04:59;;;;;;;24.27;11.93;;;;;;;;;;6172165;28;20050;-62
2023/06/25 12:07:59;;;;;;;22.53;11.67;;;;;;;;;;6179330;28;20053;-61
2023/06/25 12:11:00;;;;;;;20.10;11.67;;;;;;;;;;6189882;28;20130;-61
2023/06/25 12:14:00;;;;;;;20.60;11.47;;;;;;;;;;6177083;28;20046;-61
2023/06/25 12:17:02;;;;;;;23.40;12.97;;;;;;;;;;6170096;28;20113;-62
2023/06/25 12:20:04;;;;;;;;;;;;;;;;;;6170440;28;20057;-61
2023/06/25 12:23:05;;;;;;;17.83;10.10;;;;;;;;;;6171012;28;19967;-61
2023/06/25 12:26:05;;;;;;;19.00;10.90;;;;;;;;;;6174223;28;20484;-61
2023/06/25 12:29:06;;;;;;;21.17;10.83;;;;;;;;;;6174325;28;20063;-60
2023/06/25 12:32:07;;;;;;;21.57;10.80;;;;;;;;;;6170136;28;20057;-62
2023/06/25 12:35:09;;;;;;;21.50;11.53;;;;;;;;;;6174236;28;20050;-61
2023/06/25 12:38:09;;;;;;;22.30;10.50;;;;;;;;;;6174487;28;20134;-60
2023/06/25 12:41:10;;;;;;;19.83;9.97;;;;;;;;;;6172720;28;20466;-62
2023/06/25 12:44:10;;;;;;;18.27;10.33;;;;;;;;;;6178986;28;20046;-61
2023/06/25 12:47:11;;;;;;;20.67;10.50;;;;;;;;;;6190689;28;20457;-60
2023/06/25 12:50:12;;;;;;;18.53;9.80;;;;;;;;;;6173094;28;20062;-61
2023/06/25 12:53:12;;;;;;;18.13;8.97;;;;;;;;;;6171538;28;20097;-62
2023/06/25 12:56:13;;;;;;;18.80;9.10;;;;;;;;;;6173724;28;20101;-62
2023/06/25 12:59:14;;;;;;;20.33;9.63;;;;;;;;;;6174225;28;20042;-63
2023/06/25 13:02:14;;;;;;;22.57;11.07;;;;;;;;;;6172972;28;20130;-62
2023/06/25 13:05:15;;;;;;;18.13;9.83;;;;;;;;;;6174755;28;20129;-63
2023/06/25 13:08:15;;;;;;;21.70;9.80;;;;;;;;;;6171088;28;20410;-62
2023/06/25 13:11:16;;;;;;;22.80;9.02;;;;;;;;;;6172614;28;20057;-62
2023/06/25 13:14:17;;;;;;;17.70;8.87;;;;;;;;;;6173937;28;20039;-62
2023/06/25 13:17:19;;;;;;;16.97;8.10;;;;;;;;;;6173054;28;20070;-62
2023/06/25 13:20:19;;;;;;;16.60;8.00;;;;;;;;;;6172512;28;20074;-61
2023/06/25 13:23:20;;;;;;;19.27;8.57;;;;;;;;;;6172152;28;20486;-61
2023/06/25 13:26:21;;;;;;;17.45;7.88;;;;;;;;;;6172596;28;20050;-62
2023/06/25 13:29:21;;;;;;;17.73;7.97;;;;;;;;;;6168599;28;20047;-62
2023/06/25 13:32:22;;;;;;;14.43;7.83;;;;;;;;;;6169858;28;20043;-62
2023/06/25 13:35:23;;;;;;;15.47;7.67;;;;;;;;;;6181930;28;20070;-62
2023/06/25 13:38:23;;;;;;;19.83;8.23;;;;;;;;;;6179407;28;20061;-61
2023/06/25 13:41:24;;;;;;;17.40;7.23;;;;;;;;;;6181679;28;20370;-62
2023/06/25 13:44:24;;;;;;;16.10;7.37;;;;;;;;;;6185904;28;20046;-62
2023/06/25 13:47:25;;;;;;;13.23;6.80;;;;;;;;;;6188107;28;20054;-60
2023/06/25 13:50:26;;;;;;;17.77;7.70;;;;;;;;;;6183997;28;20054;-61
2023/06/25 13:53:27;;;;;;;15.70;7.20;;;;;;;;;;6187938;28;20070;-60
2023/06/25 13:56:28;;;;;;;14.00;6.82;;;;;;;;;;6188986;28;20046;-61
2023/06/25 13:59:29;;;;;;;17.33;7.32;;;;;;;;;;6188076;28;20073;-63
2023/06/25 14:02:29;;;;;;;13.53;6.93;;;;;;;;;;6186567;28;20050;-63
2023/06/25 14:05:35;;;;;;;15.87;7.40;;;;;;;;;;6188728;28;20074;-63
2023/06/25 14:08:35;;;;;;;14.75;7.32;;;;;;;;;;6187456;28;20073;-62
2023/06/25 14:11:36;;;;;;;13.10;6.37;;;;;;;;;;6185440;28;20421;-61
2023/06/25 14:14:36;;;;;;;15.27;6.77;;;;;;;;;;6179401;28;20723;-61
2023/06/25 14:17:37;;;;;;;12.97;6.67;;;;;;;;;;6185910;28;20602;-62
2023/06/25 14:20:38;;;;;;;14.63;7.17;;;;;;;;;;6184824;28;20056;-62
2023/06/25 14:23:39;;;;;;;18.58;7.32;;;;;;;;;;6186071;28;20050;-61
2023/06/25 14:26:39;;;;;;;15.90;6.63;;;;;;;;;;6183117;28;20406;-61
2023/06/25 14:29:40;;;;;;;13.80;6.07;;;;;;;;;;6185781;28;20081;-62
2023/06/25 14:32:40;;;;;;;13.03;6.30;;;;;;;;;;6184468;28;20458;-62
2023/06/25 14:35:41;;;;;;;18.17;6.43;;;;;;;;;;6186310;28;20488;-62
2023/06/25 14:38:42;;;;;;;15.00;6.90;;;;;;;;;;6182201;28;20101;-61
2023/06/25 14:41:42;;;;;;;13.70;6.50;;;;;;;;;;6181934;28;20038;-61
2023/06/25 14:44:43;;;;;;;14.73;6.67;;;;;;;;;;6185425;28;20053;-61
2023/06/25 14:47:44;;;;;;;13.48;6.38;;;;;;;;;;6184074;28;20058;-60
2023/06/25 14:50:45;;;;;;;21.37;7.33;;;;;;;;;;6180141;28;20045;-62
2023/06/25 14:53:45;;;;;;;15.98;6.50;;;;;;;;;;6186640;28;20161;-61
2023/06/25 14:56:46;;;;;;;14.47;6.77;;;;;;;;;;6179862;28;20708;-60
2023/06/25 14:59:46;;;;;;;14.67;6.97;;;;;;;;;;6179513;28;20062;-59
2023/06/25 15:02:47;;;;;;;13.00;6.67;;;;;;;;;;6167183;28;20046;-61
2023/06/25 15:05:49;;;;;;;18.87;7.17;;;;;;;;;;6177195;28;20093;-60
2023/06/25 15:08:49;;;;;;;18.70;7.03;;;;;;;;;;6186493;28;20066;-60
2023/06/25 15:11:50;;;;;;;14.80;7.03;;;;;;;;;;6180225;28;20080;-61
2023/06/25 15:14:51;;;;;;;14.57;7.53;;;;;;;;;;6176469;28;20070;-60
2023/06/25 15:17:51;;;;;;;17.33;6.83;;;;;;;;;;6177674;28;21237;-63
2023/06/25 15:20:52;;;;;;;17.57;7.53;;;;;;;;;;6177442;28;20057;-61
2023/06/25 15:23:53;;;;;;;20.23;7.10;;;;;;;;;;6179346;28;20681;-59
2023/06/25 15:26:53;;;;;;;15.97;7.10;;;;;;;;;;6176457;28;20047;-61
2023/06/25 15:29:54;;;;;;;15.27;6.90;;;;;;;;;;6175924;28;20073;-60
2023/06/25 15:32:54;;;;;;;15.67;6.60;;;;;;;;;;6183484;28;20579;-59
2023/06/25 15:35:55;;;;;;;14.90;7.20;;;;;;;;;;6176863;28;20390;-61
2023/06/25 15:38:56;;;;;;;17.30;7.27;;;;;;;;;;6187223;28;20050;-62
2023/06/25 15:41:56;;;;;;;15.47;7.60;;;;;;;;;;6188733;28;20129;-62
2023/06/25 15:44:57;;;;;;;15.37;7.27;;;;;;;;;;6184626;28;20058;-62
2023/06/25 15:47:58;;;;;;;16.47;7.20;;;;;;;;;;6193467;28;20498;-59
2023/06/25 15:50:58;;;;;;;14.87;7.10;;;;;;;;;;6184094;28;20049;-60
2023/06/25 15:53:59;;;;;;;17.40;8.03;;;;;;;;;;6185515;28;20068;-59
2023/06/25 15:56:59;;;;;;;17.50;7.77;;;;;;;;;;6186119;28;20546;-60
2023/06/25 16:00:00;;;;;;;18.03;8.07;;;;;;;;;;6177109;28;20047;-59
2023/06/25 16:03:00;;;;;;;18.57;7.67;;;;;;;;;;6169819;28;20102;-60
2023/06/25 16:06:01;;;;;;;16.77;7.00;;;;;;;;;;6173525;28;20058;-61
2023/06/25 16:09:02;;;;;;;16.00;7.60;;;;;;;;;;6167802;28;20147;-62
2023/06/25 16:12:03;;;;;;;20.85;8.07;;;;;;;;;;6165676;28;20477;-61
2023/06/25 16:15:04;;;;;;;15.70;6.87;;;;;;;;;;6169184;28;20046;-60
2023/06/25 16:18:05;;;;;;;18.00;7.68;;;;;;;;;;6169095;28;20213;-60
2023/06/25 16:21:07;;;;;;;18.97;8.07;;;;;;;;;;6167505;28;20143;-62
2023/06/25 16:24:07;;;;;;;20.05;7.75;;;;;;;;;;6172949;28;20058;-62
2023/06/25 16:27:08;;;;;;;16.90;7.63;;;;;;;;;;6171539;28;20410;-60
2023/06/25 16:30:09;;;;;;;15.70;7.43;;;;;;;;;;6167294;28;20073;-61
2023/06/25 16:33:10;;;;;;;18.85;7.80;;;;;;;;;;6164988;28;20165;-59
2023/06/25 16:36:10;;;;;;;20.53;8.60;;;;;;;;;;6166101;28;20185;-57
2023/06/25 16:39:11;;;;;;;16.33;7.40;;;;;;;;;;6168270;28;20066;-62
2023/06/25 16:42:11;;;;;;;14.50;7.30;;;;;;;;;;6167767;28;20125;-61
2023/06/25 16:45:13;;;;;;;21.00;9.37;;;;;;;;;;6172382;28;20144;-54
2023/06/25 16:48:13;;;;;;;;;;;;;;;;;;6169626;28;20062;-53
2023/06/25 16:51:17;;;;;;;18.77;8.18;;;;;;;;;;6169250;28;19930;-59
2023/06/25 16:54:18;;;;;;;19.42;7.85;;;;;;;;;;6171550;28;20153;-59
2023/06/25 16:57:18;;;;;;;16.83;7.43;;;;;;;;;;6167053;28;20042;-60
2023/06/25 17:00:19;;;;;;;16.30;7.50;;;;;;;;;;6169922;28;20488;-59
2023/06/25 17:03:19;;;;;;;14.27;6.73;;;;;;;;;;6163470;28;20058;-57
2023/06/25 17:06:21;;;;;;;16.85;7.80;;;;;;;;;;6169447;28;20070;-60
2023/06/25 17:09:21;;;;;;;18.40;7.50;;;;;;;;;;6164788;28;20108;-60
2023/06/25 17:12:22;;;;;;;21.57;8.40;;;;;;;;;;6166105;28;20051;-59
2023/06/25 17:15:23;;;;;;;15.37;7.60;;;;;;;;;;6175091;28;20057;-59
2023/06/25 17:18:24;;;;;;;20.52;8.38;;;;;;;;;;6168133;28;20503;-57
2023/06/25 17:21:24;;;;;;;16.07;7.27;;;;;;;;;;6170391;28;20042;-58
2023/06/25 17:24:25;;;;;;;22.00;8.07;;;;;;;;;;6175488;28;20146;-61
2023/06/25 17:27:26;;;;;;;21.43;8.27;;;;;;;;;;6175424;28;20046;-61
2023/06/25 17:30:27;;;;;;;19.98;7.75;;;;;;;;;;6169427;28;20484;-60
2023/06/25 17:33:27;;;;;;;23.90;8.57;;;;;;;;;;6169299;28;20062;-53
2023/06/25 17:36:28;;;;;;;32.73;10.67;;;;;;;;;;6174525;28;20074;-54
2023/06/25 17:39:29;;;;;;;21.93;9.17;;;;;;;;;;6173121;28;20057;-54
2023/06/25 17:42:29;;;;;;;23.43;9.00;;;;;;;;;;6173159;28;20418;-55
2023/06/25 17:45:30;;;;;;;17.83;8.43;;;;;;;;;;6176530;28;20527;-55